sensor_id;sensor_type;location;lat;lon;timestamp;temperature;humidity
15700;DHT22;7950;42.744;23.174;2022-12-29T00:01:03;4.60;99.90
15700;DHT22;7950;42.744;23.174;2022-12-29T00:03:32;4.50;99.90
15700;DHT22;7950;42.744;23.174;2022-12-29T00:06:01;4.60;99.90
15700;DHT22;7950;42.744;23.174;2022-12-29T00:08:29;4.50;99.90
15700;DHT22;7950;42.744;23.174;2022-12-29T00:11:11;4.50;99.90
15700;DHT22;7950;42.744;23.174;2022-12-29T00:13:40;4.60;99.90
15700;DHT22;7950;42.744;23.174;2022-12-29T00:16:26;4.60;99.90
15700;DHT22;7950;42.744;23.174;2022-12-29T00:18:55;4.50;99.90
15700;DHT22;7950;42.744;23.174;2022-12-29T00:21:24;4.50;99.90
15700;DHT22;7950;42.744;23.174;2022-12-29T00:24:15;4.50;99.90
15700;DHT22;7950;42.744;23.174;2022-12-29T00:27:12;4.50;99.90
15700;DHT22;7950;42.744;23.174;2022-12-29T00:29:59;4.50;99.90
15700;DHT22;7950;42.744;23.174;2022-12-29T00:32:46;4.50;99.90
15700;DHT22;7950;42.744;23.174;2022-12-29T00:35:35;4.50;99.90
15700;DHT22;7950;42.744;23.174;2022-12-29T00:38:07;4.50;99.90
15700;DHT22;7950;42.744;23.174;2022-12-29T00:40:54;4.50;99.90
15700;DHT22;7950;42.744;23.174;2022-12-29T00:43:42;4.50;99.90
15700;DHT22;7950;42.744;23.174;2022-12-29T00:46:27;4.50;99.90
15700;DHT22;7950;42.744;23.174;2022-12-29T00:48:56;4.50;99.90
15700;DHT22;7950;42.744;23.174;2022-12-29T00:51:48;4.50;99.90
15700;DHT22;7950;42.744;23.174;2022-12-29T00:54:17;4.50;99.90
15700;DHT22;7950;42.744;23.174;2022-12-29T00:56:46;4.50;99.90
15700;DHT22;7950;42.744;23.174;2022-12-29T00:59:18;4.50;99.90
15700;DHT22;7950;42.744;23.174;2022-12-29T01:01:47;4.50;99.90
15700;DHT22;7950;42.744;23.174;2022-12-29T01:04:16;4.50;99.90
15700;DHT22;7950;42.744;23.174;2022-12-29T01:06:45;4.50;99.90
15700;DHT22;7950;42.744;23.174;2022-12-29T01:09:14;4.60;99.90
15700;DHT22;7950;42.744;23.174;2022-12-29T01:12:00;4.50;99.90
15700;DHT22;7950;42.744;23.174;2022-12-29T01:14:31;4.50;99.90
15700;DHT22;7950;42.744;23.174;2022-12-29T01:17:00;4.50;99.90
15700;DHT22;7950;42.744;23.174;2022-12-29T01:19:53;4.60;99.90
15700;DHT22;7950;42.744;23.174;2022-12-29T01:22:22;4.60;99.90
15700;DHT22;7950;42.744;23.174;2022-12-29T01:24:50;4.60;99.90
15700;DHT22;7950;42.744;23.174;2022-12-29T01:27:19;4.50;99.90
15700;DHT22;7950;42.744;23.174;2022-12-29T01:29:52;4.50;99.90
15700;DHT22;7950;42.744;23.174;2022-12-29T01:32:21;4.50;99.90
15700;DHT22;7950;42.744;23.174;2022-12-29T01:35:15;4.50;99.90
15700;DHT22;7950;42.744;23.174;2022-12-29T01:37:44;4.50;99.90
15700;DHT22;7950;42.744;23.174;2022-12-29T01:40:45;4.40;99.90
15700;DHT22;7950;42.744;23.174;2022-12-29T01:43:14;4.40;99.90
15700;DHT22;7950;42.744;23.174;2022-12-29T01:45:48;4.40;99.90
15700;DHT22;7950;42.744;23.174;2022-12-29T01:48:20;4.40;99.90
15700;DHT22;7950;42.744;23.174;2022-12-29T01:50:51;4.30;99.90
15700;DHT22;7950;42.744;23.174;2022-12-29T01:53:23;4.30;99.90
15700;DHT22;7950;42.744;23.174;2022-12-29T01:55:56;4.30;99.90
15700;DHT22;7950;42.744;23.174;2022-12-29T01:58:29;4.30;99.90
15700;DHT22;7950;42.744;23.174;2022-12-29T02:01:01;4.30;99.90
15700;DHT22;7950;42.744;23.174;2022-12-29T02:03:55;4.30;99.90
15700;DHT22;7950;42.744;23.174;2022-12-29T02:06:28;4.30;99.90
15700;DHT22;7950;42.744;23.174;2022-12-29T02:08:58;4.30;99.90
15700;DHT22;7950;42.744;23.174;2022-12-29T02:11:28;4.30;99.90
15700;DHT22;7950;42.744;23.174;2022-12-29T02:13:57;4.30;99.90
15700;DHT22;7950;42.744;23.174;2022-12-29T02:16:44;4.30;99.90
15700;DHT22;7950;42.744;23.174;2022-12-29T02:19:48;4.30;99.90
15700;DHT22;7950;42.744;23.174;2022-12-29T02:22:30;4.30;99.90
15700;DHT22;7950;42.744;23.174;2022-12-29T02:25:43;4.30;99.90
15700;DHT22;7950;42.744;23.174;2022-12-29T02:28:41;4.30;99.90
15700;DHT22;7950;42.744;23.174;2022-12-29T02:31:20;4.30;99.90
15700;DHT22;7950;42.744;23.174;2022-12-29T02:34:01;4.30;99.90
15700;DHT22;7950;42.744;23.174;2022-12-29T02:36:39;4.30;99.90
15700;DHT22;7950;42.744;23.174;2022-12-29T02:39:15;4.30;99.90
15700;DHT22;7950;42.744;23.174;2022-12-29T02:41:54;4.30;99.90
15700;DHT22;7950;42.744;23.174;2022-12-29T02:44:30;4.30;99.90
15700;DHT22;7950;42.744;23.174;2022-12-29T02:47:11;4.30;99.90
15700;DHT22;7950;42.744;23.174;2022-12-29T02:49:49;4.30;99.90
15700;DHT22;7950;42.744;23.174;2022-12-29T02:52:25;4.30;99.90
15700;DHT22;7950;42.744;23.174;2022-12-29T02:54:56;4.30;99.90
15700;DHT22;7950;42.744;23.174;2022-12-29T02:57:32;4.30;99.90
15700;DHT22;7950;42.744;23.174;2022-12-29T03:00:07;4.30;99.90
15700;DHT22;7950;42.744;23.174;2022-12-29T03:03:12;4.20;99.90
15700;DHT22;7950;42.744;23.174;2022-12-29T03:08:46;4.20;99.90
15700;DHT22;7950;42.744;23.174;2022-12-29T03:11:16;4.20;99.90
15700;DHT22;7950;42.744;23.174;2022-12-29T03:14:06;4.30;99.90
15700;DHT22;7950;42.744;23.174;2022-12-29T03:16:58;4.20;99.90
15700;DHT22;7950;42.744;23.174;2022-12-29T03:19:31;4.20;99.90
15700;DHT22;7950;42.744;23.174;2022-12-29T03:22:03;4.20;99.90
15700;DHT22;7950;42.744;23.174;2022-12-29T03:24:52;4.20;99.90
15700;DHT22;7950;42.744;23.174;2022-12-29T03:27:25;4.20;99.90
15700;DHT22;7950;42.744;23.174;2022-12-29T03:30:00;4.20;99.90
15700;DHT22;7950;42.744;23.174;2022-12-29T03:32:33;4.10;99.90
15700;DHT22;7950;42.744;23.174;2022-12-29T03:35:08;4.10;99.90
15700;DHT22;7950;42.744;23.174;2022-12-29T03:37:43;4.00;99.90
15700;DHT22;7950;42.744;23.174;2022-12-29T03:40:12;4.00;99.90
15700;DHT22;7950;42.744;23.174;2022-12-29T03:42:41;3.90;99.90
15700;DHT22;7950;42.744;23.174;2022-12-29T03:45:11;3.90;99.90
15700;DHT22;7950;42.744;23.174;2022-12-29T03:47:40;3.80;99.90
15700;DHT22;7950;42.744;23.174;2022-12-29T03:50:11;3.80;99.90
15700;DHT22;7950;42.744;23.174;2022-12-29T03:52:40;3.70;99.90
15700;DHT22;7950;42.744;23.174;2022-12-29T03:55:10;3.70;99.90
15700;DHT22;7950;42.744;23.174;2022-12-29T03:57:39;3.60;99.90
15700;DHT22;7950;42.744;23.174;2022-12-29T04:00:08;3.60;99.90
15700;DHT22;7950;42.744;23.174;2022-12-29T04:02:37;3.50;99.90
15700;DHT22;7950;42.744;23.174;2022-12-29T04:05:07;3.50;99.90
15700;DHT22;7950;42.744;23.174;2022-12-29T04:07:37;3.50;99.90
15700;DHT22;7950;42.744;23.174;2022-12-29T04:10:06;3.50;99.90
15700;DHT22;7950;42.744;23.174;2022-12-29T04:12:59;3.40;99.90
15700;DHT22;7950;42.744;23.174;2022-12-29T04:15:47;3.40;99.90
15700;DHT22;7950;42.744;23.174;2022-12-29T04:18:20;3.40;99.90
15700;DHT22;7950;42.744;23.174;2022-12-29T04:20:48;3.40;99.90
15700;DHT22;7950;42.744;23.174;2022-12-29T04:23:33;3.40;99.90
15700;DHT22;7950;42.744;23.174;2022-12-29T04:26:03;3.40;99.90
15700;DHT22;7950;42.744;23.174;2022-12-29T04:28:33;3.30;99.90
15700;DHT22;7950;42.744;23.174;2022-12-29T04:31:03;3.30;99.90
15700;DHT22;7950;42.744;23.174;2022-12-29T04:33:33;3.30;99.90
15700;DHT22;7950;42.744;23.174;2022-12-29T04:36:02;3.20;99.90
15700;DHT22;7950;42.744;23.174;2022-12-29T04:38:32;3.20;99.90
15700;DHT22;7950;42.744;23.174;2022-12-29T04:41:01;3.10;99.90
15700;DHT22;7950;42.744;23.174;2022-12-29T04:43:30;3.10;99.90
15700;DHT22;7950;42.744;23.174;2022-12-29T04:46:03;3.10;99.90
15700;DHT22;7950;42.744;23.174;2022-12-29T04:48:31;3.10;99.90
15700;DHT22;7950;42.744;23.174;2022-12-29T04:51:00;3.10;99.90
15700;DHT22;7950;42.744;23.174;2022-12-29T04:53:29;3.10;99.90
15700;DHT22;7950;42.744;23.174;2022-12-29T04:56:06;3.10;99.90
15700;DHT22;7950;42.744;23.174;2022-12-29T04:58:36;3.10;99.90
15700;DHT22;7950;42.744;23.174;2022-12-29T05:01:05;3.10;99.90
15700;DHT22;7950;42.744;23.174;2022-12-29T05:03:34;3.10;99.90
15700;DHT22;7950;42.744;23.174;2022-12-29T05:06:03;3.00;99.90
15700;DHT22;7950;42.744;23.174;2022-12-29T05:08:33;3.10;99.90
15700;DHT22;7950;42.744;23.174;2022-12-29T05:11:01;3.10;99.90
15700;DHT22;7950;42.744;23.174;2022-12-29T05:13:32;3.10;99.90
15700;DHT22;7950;42.744;23.174;2022-12-29T05:16:00;3.10;99.90
15700;DHT22;7950;42.744;23.174;2022-12-29T05:18:29;3.10;99.90
15700;DHT22;7950;42.744;23.174;2022-12-29T05:20:58;3.20;99.90
15700;DHT22;7950;42.744;23.174;2022-12-29T05:23:51;3.30;99.90
15700;DHT22;7950;42.744;23.174;2022-12-29T05:26:20;3.30;99.90
15700;DHT22;7950;42.744;23.174;2022-12-29T05:28:54;3.30;99.90
15700;DHT22;7950;42.744;23.174;2022-12-29T05:31:22;3.30;99.90
15700;DHT22;7950;42.744;23.174;2022-12-29T05:33:51;3.40;99.90
15700;DHT22;7950;42.744;23.174;2022-12-29T05:36:20;3.50;99.90
15700;DHT22;7950;42.744;23.174;2022-12-29T05:38:49;3.50;99.90
15700;DHT22;7950;42.744;23.174;2022-12-29T05:41:18;3.40;99.90
15700;DHT22;7950;42.744;23.174;2022-12-29T05:43:46;3.40;99.90
15700;DHT22;7950;42.744;23.174;2022-12-29T05:46:17;3.50;99.90
15700;DHT22;7950;42.744;23.174;2022-12-29T05:48:46;3.50;99.90
15700;DHT22;7950;42.744;23.174;2022-12-29T05:54:38;3.40;99.90
15700;DHT22;7950;42.744;23.174;2022-12-29T05:57:06;3.40;99.90
15700;DHT22;7950;42.744;23.174;2022-12-29T05:59:41;3.40;99.90
15700;DHT22;7950;42.744;23.174;2022-12-29T06:02:12;3.40;99.90
15700;DHT22;7950;42.744;23.174;2022-12-29T06:04:41;3.50;99.90
15700;DHT22;7950;42.744;23.174;2022-12-29T06:07:09;3.50;99.90
15700;DHT22;7950;42.744;23.174;2022-12-29T06:09:38;3.50;99.90
15700;DHT22;7950;42.744;23.174;2022-12-29T06:12:07;3.50;99.90
15700;DHT22;7950;42.744;23.174;2022-12-29T06:14:35;3.60;99.90
15700;DHT22;7950;42.744;23.174;2022-12-29T06:17:04;3.60;99.90
15700;DHT22;7950;42.744;23.174;2022-12-29T06:19:34;3.60;99.90
15700;DHT22;7950;42.744;23.174;2022-12-29T06:22:03;3.60;99.90
15700;DHT22;7950;42.744;23.174;2022-12-29T06:24:32;3.50;99.90
15700;DHT22;7950;42.744;23.174;2022-12-29T06:27:00;3.60;99.90
15700;DHT22;7950;42.744;23.174;2022-12-29T06:29:29;3.70;99.90
15700;DHT22;7950;42.744;23.174;2022-12-29T06:31:58;3.80;99.90
15700;DHT22;7950;42.744;23.174;2022-12-29T06:34:27;4.20;99.90
15700;DHT22;7950;42.744;23.174;2022-12-29T06:37:23;4.30;99.90
15700;DHT22;7950;42.744;23.174;2022-12-29T06:39:52;4.40;99.90
15700;DHT22;7950;42.744;23.174;2022-12-29T06:42:21;4.30;99.90
15700;DHT22;7950;42.744;23.174;2022-12-29T06:44:58;4.20;99.90
15700;DHT22;7950;42.744;23.174;2022-12-29T06:47:27;4.20;99.90
15700;DHT22;7950;42.744;23.174;2022-12-29T06:49:57;4.20;99.90
15700;DHT22;7950;42.744;23.174;2022-12-29T06:52:27;4.20;99.90
15700;DHT22;7950;42.744;23.174;2022-12-29T06:54:56;4.10;99.90
15700;DHT22;7950;42.744;23.174;2022-12-29T06:57:25;4.20;99.90
15700;DHT22;7950;42.744;23.174;2022-12-29T07:00:22;4.10;99.90
15700;DHT22;7950;42.744;23.174;2022-12-29T07:02:50;4.20;99.90
15700;DHT22;7950;42.744;23.174;2022-12-29T07:05:19;4.20;99.90
15700;DHT22;7950;42.744;23.174;2022-12-29T07:07:49;4.20;99.90
15700;DHT22;7950;42.744;23.174;2022-12-29T07:10:19;4.20;99.90
15700;DHT22;7950;42.744;23.174;2022-12-29T07:12:48;4.20;99.90
15700;DHT22;7950;42.744;23.174;2022-12-29T07:15:16;4.30;99.90
15700;DHT22;7950;42.744;23.174;2022-12-29T07:17:45;4.30;99.90
15700;DHT22;7950;42.744;23.174;2022-12-29T07:20:14;4.40;99.90
15700;DHT22;7950;42.744;23.174;2022-12-29T07:22:50;4.40;99.90
15700;DHT22;7950;42.744;23.174;2022-12-29T07:25:19;4.40;99.90
15700;DHT22;7950;42.744;23.174;2022-12-29T07:27:48;4.50;99.90
15700;DHT22;7950;42.744;23.174;2022-12-29T07:30:17;4.50;99.90
15700;DHT22;7950;42.744;23.174;2022-12-29T07:32:46;4.60;99.90
15700;DHT22;7950;42.744;23.174;2022-12-29T07:35:15;4.60;99.90
15700;DHT22;7950;42.744;23.174;2022-12-29T07:37:43;4.60;99.90
15700;DHT22;7950;42.744;23.174;2022-12-29T07:40:14;4.70;99.90
15700;DHT22;7950;42.744;23.174;2022-12-29T07:42:43;4.70;99.90
15700;DHT22;7950;42.744;23.174;2022-12-29T07:45:11;4.80;99.90
15700;DHT22;7950;42.744;23.174;2022-12-29T07:47:40;4.80;99.90
15700;DHT22;7950;42.744;23.174;2022-12-29T07:50:09;4.90;99.90
15700;DHT22;7950;42.744;23.174;2022-12-29T07:52:38;5.00;99.90
15700;DHT22;7950;42.744;23.174;2022-12-29T07:55:07;5.00;99.90
15700;DHT22;7950;42.744;23.174;2022-12-29T07:57:38;5.00;99.90
15700;DHT22;7950;42.744;23.174;2022-12-29T08:00:08;5.10;99.90
15700;DHT22;7950;42.744;23.174;2022-12-29T08:02:37;5.10;99.90
15700;DHT22;7950;42.744;23.174;2022-12-29T08:05:07;5.20;99.90
15700;DHT22;7950;42.744;23.174;2022-12-29T08:07:35;5.20;99.90
15700;DHT22;7950;42.744;23.174;2022-12-29T08:10:05;5.20;99.90
15700;DHT22;7950;42.744;23.174;2022-12-29T08:12:34;5.30;99.90
15700;DHT22;7950;42.744;23.174;2022-12-29T08:15:06;5.30;99.90
15700;DHT22;7950;42.744;23.174;2022-12-29T08:17:34;5.40;99.90
15700;DHT22;7950;42.744;23.174;2022-12-29T08:20:04;5.50;99.90
15700;DHT22;7950;42.744;23.174;2022-12-29T08:22:33;5.60;99.90
15700;DHT22;7950;42.744;23.174;2022-12-29T08:25:03;5.70;99.90
15700;DHT22;7950;42.744;23.174;2022-12-29T08:27:32;6.00;99.90
15700;DHT22;7950;42.744;23.174;2022-12-29T08:30:01;6.20;99.90
15700;DHT22;7950;42.744;23.174;2022-12-29T08:32:31;6.50;99.90
15700;DHT22;7950;42.744;23.174;2022-12-29T08:35:00;6.80;99.90
15700;DHT22;7950;42.744;23.174;2022-12-29T08:37:29;7.10;99.90
15700;DHT22;7950;42.744;23.174;2022-12-29T08:39:58;7.30;99.90
15700;DHT22;7950;42.744;23.174;2022-12-29T08:42:31;7.40;99.90
15700;DHT22;7950;42.744;23.174;2022-12-29T08:45:00;7.50;99.90
15700;DHT22;7950;42.744;23.174;2022-12-29T08:47:28;7.50;99.90
15700;DHT22;7950;42.744;23.174;2022-12-29T08:49:59;7.60;99.90
15700;DHT22;7950;42.744;23.174;2022-12-29T08:52:27;7.60;99.90
15700;DHT22;7950;42.744;23.174;2022-12-29T08:55:21;7.70;99.90
15700;DHT22;7950;42.744;23.174;2022-12-29T08:57:50;7.90;99.90
15700;DHT22;7950;42.744;23.174;2022-12-29T09:00:19;7.90;99.90
15700;DHT22;7950;42.744;23.174;2022-12-29T09:02:49;7.90;99.90
15700;DHT22;7950;42.744;23.174;2022-12-29T09:05:19;7.90;99.90
15700;DHT22;7950;42.744;23.174;2022-12-29T09:07:48;8.20;99.90
15700;DHT22;7950;42.744;23.174;2022-12-29T09:10:17;8.60;99.90
15700;DHT22;7950;42.744;23.174;2022-12-29T09:12:46;9.00;99.90
15700;DHT22;7950;42.744;23.174;2022-12-29T09:15:15;9.10;99.90
15700;DHT22;7950;42.744;23.174;2022-12-29T09:17:44;9.00;99.90
15700;DHT22;7950;42.744;23.174;2022-12-29T09:20:15;8.90;99.90
15700;DHT22;7950;42.744;23.174;2022-12-29T09:22:46;8.80;99.90
15700;DHT22;7950;42.744;23.174;2022-12-29T09:25:16;8.70;99.90
15700;DHT22;7950;42.744;23.174;2022-12-29T09:27:44;8.60;99.90
15700;DHT22;7950;42.744;23.174;2022-12-29T09:30:24;8.60;99.90
15700;DHT22;7950;42.744;23.174;2022-12-29T09:32:53;8.50;99.90
15700;DHT22;7950;42.744;23.174;2022-12-29T09:35:21;8.50;99.90
15700;DHT22;7950;42.744;23.174;2022-12-29T09:37:51;8.50;99.90
15700;DHT22;7950;42.744;23.174;2022-12-29T09:40:28;8.40;99.90
15700;DHT22;7950;42.744;23.174;2022-12-29T09:43:24;8.40;99.90
15700;DHT22;7950;42.744;23.174;2022-12-29T09:46:02;8.30;99.90
15700;DHT22;7950;42.744;23.174;2022-12-29T09:48:39;8.30;99.90
15700;DHT22;7950;42.744;23.174;2022-12-29T09:51:13;8.30;99.90
15700;DHT22;7950;42.744;23.174;2022-12-29T09:53:48;8.40;99.90
15700;DHT22;7950;42.744;23.174;2022-12-29T09:56:20;8.50;99.90
15700;DHT22;7950;42.744;23.174;2022-12-29T09:59:15;8.50;99.90
15700;DHT22;7950;42.744;23.174;2022-12-29T10:01:51;8.50;99.90
15700;DHT22;7950;42.744;23.174;2022-12-29T10:04:22;8.60;99.90
15700;DHT22;7950;42.744;23.174;2022-12-29T10:06:54;8.60;99.90
15700;DHT22;7950;42.744;23.174;2022-12-29T10:09:53;8.40;99.90
15700;DHT22;7950;42.744;23.174;2022-12-29T10:12:31;8.30;99.90
15700;DHT22;7950;42.744;23.174;2022-12-29T10:15:08;8.30;99.90
15700;DHT22;7950;42.744;23.174;2022-12-29T10:17:48;8.30;99.90
15700;DHT22;7950;42.744;23.174;2022-12-29T10:20:27;8.40;99.90
15700;DHT22;7950;42.744;23.174;2022-12-29T10:23:26;8.40;99.90
15700;DHT22;7950;42.744;23.174;2022-12-29T10:25:58;8.40;99.90
15700;DHT22;7950;42.744;23.174;2022-12-29T10:28:34;8.40;99.90
15700;DHT22;7950;42.744;23.174;2022-12-29T10:31:07;8.40;99.90
15700;DHT22;7950;42.744;23.174;2022-12-29T10:33:40;8.50;99.90
15700;DHT22;7950;42.744;23.174;2022-12-29T10:36:17;8.50;99.90
15700;DHT22;7950;42.744;23.174;2022-12-29T10:38:53;8.50;99.90
15700;DHT22;7950;42.744;23.174;2022-12-29T10:41:28;8.60;99.90
15700;DHT22;7950;42.744;23.174;2022-12-29T10:44:01;8.70;99.90
15700;DHT22;7950;42.744;23.174;2022-12-29T10:46:36;8.70;99.90
15700;DHT22;7950;42.744;23.174;2022-12-29T10:49:06;8.70;99.90
15700;DHT22;7950;42.744;23.174;2022-12-29T10:51:48;8.80;99.90
15700;DHT22;7950;42.744;23.174;2022-12-29T10:54:23;8.90;99.90
15700;DHT22;7950;42.744;23.174;2022-12-29T10:56:56;9.00;99.90
15700;DHT22;7950;42.744;23.174;2022-12-29T10:59:30;9.10;99.90
15700;DHT22;7950;42.744;23.174;2022-12-29T11:02:04;9.20;99.90
15700;DHT22;7950;42.744;23.174;2022-12-29T11:04:47;9.40;99.90
15700;DHT22;7950;42.744;23.174;2022-12-29T11:07:21;9.50;99.90
15700;DHT22;7950;42.744;23.174;2022-12-29T11:09:53;9.60;99.90
15700;DHT22;7950;42.744;23.174;2022-12-29T11:12:59;9.70;99.90
15700;DHT22;7950;42.744;23.174;2022-12-29T11:15:39;9.70;99.90
15700;DHT22;7950;42.744;23.174;2022-12-29T11:18:19;9.80;99.90
15700;DHT22;7950;42.744;23.174;2022-12-29T11:20:49;9.80;99.90
15700;DHT22;7950;42.744;23.174;2022-12-29T11:23:23;9.80;99.90
15700;DHT22;7950;42.744;23.174;2022-12-29T11:26:17;9.90;99.90
15700;DHT22;7950;42.744;23.174;2022-12-29T11:29:20;9.80;99.90
15700;DHT22;7950;42.744;23.174;2022-12-29T11:31:50;9.80;99.90
15700;DHT22;7950;42.744;23.174;2022-12-29T11:34:21;9.80;99.90
15700;DHT22;7950;42.744;23.174;2022-12-29T11:36:52;9.80;99.90
15700;DHT22;7950;42.744;23.174;2022-12-29T11:39:29;9.70;99.90
15700;DHT22;7950;42.744;23.174;2022-12-29T11:42:17;9.60;99.90
15700;DHT22;7950;42.744;23.174;2022-12-29T11:44:49;9.50;99.90
15700;DHT22;7950;42.744;23.174;2022-12-29T11:47:34;9.40;99.90
15700;DHT22;7950;42.744;23.174;2022-12-29T11:50:06;9.30;99.90
15700;DHT22;7950;42.744;23.174;2022-12-29T11:52:36;9.30;99.90
15700;DHT22;7950;42.744;23.174;2022-12-29T11:55:17;9.20;99.90
15700;DHT22;7950;42.744;23.174;2022-12-29T11:57:47;9.20;99.90
15700;DHT22;7950;42.744;23.174;2022-12-29T12:00:19;9.20;99.90
15700;DHT22;7950;42.744;23.174;2022-12-29T12:02:54;9.10;99.90
15700;DHT22;7950;42.744;23.174;2022-12-29T12:05:30;9.10;99.90
15700;DHT22;7950;42.744;23.174;2022-12-29T12:08:08;9.10;99.90
15700;DHT22;7950;42.744;23.174;2022-12-29T12:10:49;9.10;99.90
15700;DHT22;7950;42.744;23.174;2022-12-29T12:13:22;9.00;99.90
15700;DHT22;7950;42.744;23.174;2022-12-29T12:15:58;8.90;99.90
15700;DHT22;7950;42.744;23.174;2022-12-29T12:18:43;8.90;99.90
15700;DHT22;7950;42.744;23.174;2022-12-29T12:21:20;8.80;99.90
15700;DHT22;7950;42.744;23.174;2022-12-29T12:24:08;8.90;99.90
15700;DHT22;7950;42.744;23.174;2022-12-29T12:27:09;8.90;99.90
15700;DHT22;7950;42.744;23.174;2022-12-29T12:29:45;8.90;99.90
15700;DHT22;7950;42.744;23.174;2022-12-29T12:32:20;8.90;99.90
15700;DHT22;7950;42.744;23.174;2022-12-29T12:34:59;8.90;99.90
15700;DHT22;7950;42.744;23.174;2022-12-29T12:37:42;8.90;99.90
15700;DHT22;7950;42.744;23.174;2022-12-29T12:40:34;8.90;99.90
15700;DHT22;7950;42.744;23.174;2022-12-29T12:43:19;8.90;99.90
15700;DHT22;7950;42.744;23.174;2022-12-29T12:52:05;8.80;99.90
15700;DHT22;7950;42.744;23.174;2022-12-29T12:54:51;8.90;99.90
15700;DHT22;7950;42.744;23.174;2022-12-29T12:57:36;8.80;99.90
15700;DHT22;7950;42.744;23.174;2022-12-29T13:00:10;8.80;99.90
15700;DHT22;7950;42.744;23.174;2022-12-29T13:02:54;8.80;99.90
15700;DHT22;7950;42.744;23.174;2022-12-29T13:05:38;8.80;99.90
15700;DHT22;7950;42.744;23.174;2022-12-29T13:08:39;8.80;99.90
15700;DHT22;7950;42.744;23.174;2022-12-29T13:11:18;8.80;99.90
15700;DHT22;7950;42.744;23.174;2022-12-29T13:14:01;8.80;99.90
15700;DHT22;7950;42.744;23.174;2022-12-29T13:17:00;8.70;99.90
15700;DHT22;7950;42.744;23.174;2022-12-29T13:19:34;8.70;99.90
15700;DHT22;7950;42.744;23.174;2022-12-29T13:22:09;8.70;99.90
15700;DHT22;7950;42.744;23.174;2022-12-29T13:24:50;8.70;99.90
15700;DHT22;7950;42.744;23.174;2022-12-29T13:27:31;8.60;99.90
15700;DHT22;7950;42.744;23.174;2022-12-29T13:30:05;8.60;99.90
15700;DHT22;7950;42.744;23.174;2022-12-29T13:32:53;8.50;99.90
15700;DHT22;7950;42.744;23.174;2022-12-29T13:35:35;8.50;99.90
15700;DHT22;7950;42.744;23.174;2022-12-29T13:38:12;8.50;99.90
15700;DHT22;7950;42.744;23.174;2022-12-29T13:40:47;8.50;99.90
15700;DHT22;7950;42.744;23.174;2022-12-29T13:43:19;8.50;99.90
15700;DHT22;7950;42.744;23.174;2022-12-29T13:45:55;8.50;99.90
15700;DHT22;7950;42.744;23.174;2022-12-29T13:48:37;8.40;99.90
15700;DHT22;7950;42.744;23.174;2022-12-29T13:51:09;8.40;99.90
15700;DHT22;7950;42.744;23.174;2022-12-29T13:57:06;8.30;99.90
15700;DHT22;7950;42.744;23.174;2022-12-29T13:59:42;8.30;99.90
15700;DHT22;7950;42.744;23.174;2022-12-29T14:02:24;8.30;99.90
15700;DHT22;7950;42.744;23.174;2022-12-29T14:04:57;8.40;99.90
15700;DHT22;7950;42.744;23.174;2022-12-29T14:07:27;8.40;99.90
15700;DHT22;7950;42.744;23.174;2022-12-29T14:09:57;8.40;99.90
15700;DHT22;7950;42.744;23.174;2022-12-29T14:12:35;8.40;99.90
15700;DHT22;7950;42.744;23.174;2022-12-29T14:15:21;8.40;99.90
15700;DHT22;7950;42.744;23.174;2022-12-29T14:18:05;8.40;99.90
15700;DHT22;7950;42.744;23.174;2022-12-29T14:20:34;8.40;99.90
15700;DHT22;7950;42.744;23.174;2022-12-29T14:23:16;8.30;99.90
15700;DHT22;7950;42.744;23.174;2022-12-29T14:26:00;8.30;99.90
15700;DHT22;7950;42.744;23.174;2022-12-29T14:28:50;8.30;99.90
15700;DHT22;7950;42.744;23.174;2022-12-29T14:31:44;8.30;99.90
15700;DHT22;7950;42.744;23.174;2022-12-29T14:34:29;8.30;99.90
15700;DHT22;7950;42.744;23.174;2022-12-29T14:37:00;8.30;99.90
15700;DHT22;7950;42.744;23.174;2022-12-29T14:39:37;8.20;99.90
15700;DHT22;7950;42.744;23.174;2022-12-29T14:42:11;8.20;99.90
15700;DHT22;7950;42.744;23.174;2022-12-29T14:44:51;8.10;99.90
15700;DHT22;7950;42.744;23.174;2022-12-29T14:47:33;8.10;99.90
15700;DHT22;7950;42.744;23.174;2022-12-29T14:50:04;8.00;99.90
15700;DHT22;7950;42.744;23.174;2022-12-29T14:52:43;8.10;99.90
15700;DHT22;7950;42.744;23.174;2022-12-29T14:55:36;8.00;99.90
15700;DHT22;7950;42.744;23.174;2022-12-29T14:58:14;8.00;99.90
15700;DHT22;7950;42.744;23.174;2022-12-29T15:00:48;7.90;99.90
15700;DHT22;7950;42.744;23.174;2022-12-29T15:03:43;7.90;99.90
15700;DHT22;7950;42.744;23.174;2022-12-29T15:06:13;7.80;99.90
15700;DHT22;7950;42.744;23.174;2022-12-29T15:08:49;7.80;99.90
15700;DHT22;7950;42.744;23.174;2022-12-29T15:11:21;7.80;99.90
15700;DHT22;7950;42.744;23.174;2022-12-29T15:13:50;7.70;99.90
15700;DHT22;7950;42.744;23.174;2022-12-29T15:16:33;7.60;99.90
15700;DHT22;7950;42.744;23.174;2022-12-29T15:19:04;7.50;99.90
15700;DHT22;7950;42.744;23.174;2022-12-29T15:21:49;7.50;99.90
15700;DHT22;7950;42.744;23.174;2022-12-29T15:24:18;7.40;99.90
15700;DHT22;7950;42.744;23.174;2022-12-29T15:26:48;7.30;99.90
15700;DHT22;7950;42.744;23.174;2022-12-29T15:29:34;7.20;99.90
15700;DHT22;7950;42.744;23.174;2022-12-29T15:32:18;7.20;99.90
15700;DHT22;7950;42.744;23.174;2022-12-29T15:34:49;7.10;99.90
15700;DHT22;7950;42.744;23.174;2022-12-29T15:37:19;7.00;99.90
15700;DHT22;7950;42.744;23.174;2022-12-29T15:39:48;7.00;99.90
15700;DHT22;7950;42.744;23.174;2022-12-29T15:42:45;7.00;99.90
15700;DHT22;7950;42.744;23.174;2022-12-29T15:45:16;7.00;99.90
15700;DHT22;7950;42.744;23.174;2022-12-29T15:47:48;6.90;99.90
15700;DHT22;7950;42.744;23.174;2022-12-29T15:50:22;6.80;99.90
15700;DHT22;7950;42.744;23.174;2022-12-29T15:52:52;6.70;99.90
15700;DHT22;7950;42.744;23.174;2022-12-29T15:55:24;6.70;99.90
15700;DHT22;7950;42.744;23.174;2022-12-29T15:57:57;6.70;99.90
15700;DHT22;7950;42.744;23.174;2022-12-29T16:00:28;6.60;99.90
15700;DHT22;7950;42.744;23.174;2022-12-29T16:03:01;6.50;99.90
15700;DHT22;7950;42.744;23.174;2022-12-29T16:05:32;6.50;99.90
15700;DHT22;7950;42.744;23.174;2022-12-29T16:08:03;6.40;99.90
15700;DHT22;7950;42.744;23.174;2022-12-29T16:10:35;6.30;99.90
15700;DHT22;7950;42.744;23.174;2022-12-29T16:13:10;6.20;99.90
15700;DHT22;7950;42.744;23.174;2022-12-29T16:15:45;6.10;99.90
15700;DHT22;7950;42.744;23.174;2022-12-29T16:18:22;6.00;99.90
15700;DHT22;7950;42.744;23.174;2022-12-29T16:20:52;5.80;99.90
15700;DHT22;7950;42.744;23.174;2022-12-29T16:23:25;5.80;99.90
15700;DHT22;7950;42.744;23.174;2022-12-29T16:25:55;5.70;99.90
15700;DHT22;7950;42.744;23.174;2022-12-29T16:28:28;5.70;99.90
15700;DHT22;7950;42.744;23.174;2022-12-29T16:31:03;5.60;99.90
15700;DHT22;7950;42.744;23.174;2022-12-29T16:33:44;5.40;99.90
15700;DHT22;7950;42.744;23.174;2022-12-29T16:36:31;5.30;99.90
15700;DHT22;7950;42.744;23.174;2022-12-29T16:39:25;5.20;99.90
15700;DHT22;7950;42.744;23.174;2022-12-29T16:41:55;5.30;99.90
15700;DHT22;7950;42.744;23.174;2022-12-29T16:44:25;5.20;99.90
15700;DHT22;7950;42.744;23.174;2022-12-29T16:47:18;5.30;99.90
15700;DHT22;7950;42.744;23.174;2022-12-29T16:50:10;5.20;99.90
15700;DHT22;7950;42.744;23.174;2022-12-29T16:52:40;5.10;99.90